Terminal Aerodrome Forecast
Issued by NWS North Platte, NE

Home | Current Version | Previous Version | Text Only | Print | Product List | Glossary Off
Versions: 1 2 3 4 5 6 7 8 9 10 11 12 13 14 15 16 17 18 19

000
FTUS43 KLBF 261100
TAFVTN
TAF
KVTN 261120Z 2612/2712 22005KT P6SM BKN090
      TEMPO 2615/2618 5SM -SHRA OVC025
     FM261800 01012G18KT P6SM BKN040
     FM270000 03007KT P6SM SCT090 BKN150=

USA.gov is the U.S. government's official web portal to all federal, state and local government web resources and services.